createdAt,value
2023-05-11T00:00:35.580Z,16.50
2023-05-11T00:03:08.473Z,16.49
2023-05-11T00:05:42.179Z,16.49
2023-05-11T00:08:17.177Z,16.46
2023-05-11T00:10:51.562Z,16.47
2023-05-11T00:13:24.278Z,16.46
2023-05-11T00:15:57.028Z,16.52
2023-05-11T00:18:29.772Z,16.44
2023-05-11T00:21:02.557Z,16.44
2023-05-11T00:23:35.349Z,16.37
2023-05-11T00:26:09.340Z,16.38
2023-05-11T00:28:42.573Z,16.36
2023-05-11T00:31:15.428Z,16.35
2023-05-11T00:33:48.255Z,16.43
2023-05-11T00:36:21.028Z,16.44
2023-05-11T00:38:53.871Z,16.38
2023-05-11T00:41:28.161Z,16.34
2023-05-11T00:44:00.983Z,16.36
2023-05-11T00:46:34.468Z,16.39
2023-05-11T00:49:07.536Z,16.38
2023-05-11T00:51:41.075Z,16.36
2023-05-11T00:54:15.526Z,16.40
2023-05-11T00:56:49.861Z,16.34
2023-05-11T00:59:22.901Z,16.45
2023-05-11T01:01:55.737Z,16.44
2023-05-11T01:04:28.780Z,16.40
2023-05-11T01:07:07.336Z,16.41
2023-05-11T01:09:50.603Z,16.37
2023-05-11T01:12:30.985Z,16.29
2023-05-11T01:15:09.982Z,16.29
2023-05-11T01:17:50.081Z,16.31
2023-05-11T01:20:27.217Z,16.20
2023-05-11T01:23:18.253Z,16.25
2023-05-11T01:26:08.931Z,16.22
2023-05-11T01:29:03.270Z,16.19
2023-05-11T01:31:41.735Z,16.24
2023-05-11T01:34:19.042Z,16.18
2023-05-11T01:36:55.721Z,16.21
2023-05-11T01:39:33.310Z,16.20
2023-05-11T01:42:09.593Z,16.23
2023-05-11T01:44:45.443Z,16.22
2023-05-11T01:47:21.359Z,16.21
2023-05-11T01:49:55.703Z,16.26
2023-05-11T01:52:30.456Z,16.17
2023-05-11T01:55:05.901Z,16.13
2023-05-11T01:57:39.973Z,16.20
2023-05-11T02:00:14.146Z,16.18
2023-05-11T02:02:50.687Z,16.18
2023-05-11T02:05:25.093Z,16.21
2023-05-11T02:07:59.498Z,16.13
2023-05-11T02:10:35.293Z,16.17
2023-05-11T02:13:11.015Z,16.12
2023-05-11T02:15:45.951Z,16.10
2023-05-11T02:18:21.866Z,16.16
2023-05-11T02:21:04.203Z,16.15
2023-05-11T02:23:38.276Z,16.14
2023-05-11T02:26:13.405Z,16.11
2023-05-11T02:28:46.432Z,16.08
2023-05-11T02:31:20.669Z,16.10
2023-05-11T02:34:01.501Z,16.06
2023-05-11T02:36:38.472Z,16.10
2023-05-11T02:39:15.492Z,16.12
2023-05-11T02:41:55.868Z,16.08
2023-05-11T02:44:33.306Z,16.03
2023-05-11T02:47:09.791Z,16.05
2023-05-11T02:49:45.502Z,16.07
2023-05-11T02:52:19.365Z,15.98
2023-05-11T02:54:54.664Z,16.06
2023-05-11T02:57:28.054Z,16.00
2023-05-11T03:00:04.323Z,16.00
2023-05-11T03:02:37.271Z,15.91
2023-05-11T03:14:36.338Z,15.98
2023-05-11T03:17:10.667Z,15.98
2023-05-11T03:22:52.872Z,15.96
2023-05-11T03:25:27.161Z,15.98
2023-05-11T03:28:01.020Z,15.94
2023-05-11T03:30:37.435Z,15.91
2023-05-11T03:33:10.567Z,15.94
2023-05-11T03:35:45.016Z,15.97
2023-05-11T03:38:23.139Z,15.91
2023-05-11T03:40:58.933Z,15.92
2023-05-11T03:43:35.750Z,15.92
2023-05-11T03:46:12.954Z,15.92
2023-05-11T03:48:45.932Z,15.83
2023-05-11T03:51:23.571Z,15.94
2023-05-11T03:53:56.414Z,15.94
2023-05-11T03:56:29.122Z,15.94
2023-05-11T03:59:03.477Z,15.98
2023-05-11T04:01:38.108Z,15.94
2023-05-11T04:04:11.984Z,15.97
2023-05-11T04:06:44.824Z,15.98
2023-05-11T04:09:21.546Z,15.88
2023-05-11T04:11:54.224Z,15.90
2023-05-11T04:14:27.602Z,15.85
2023-05-11T04:17:01.678Z,15.96
2023-05-11T04:19:34.528Z,15.85
2023-05-11T04:22:07.446Z,15.90
2023-05-11T04:24:40.745Z,15.91
2023-05-11T04:27:13.756Z,15.92
2023-05-11T04:29:46.481Z,15.93
2023-05-11T04:32:20.642Z,15.86
2023-05-11T04:34:53.401Z,15.87
2023-05-11T04:37:29.251Z,15.99
2023-05-11T04:40:04.299Z,16.00
2023-05-11T04:42:42.155Z,16.01
2023-05-11T04:45:20.537Z,15.94
2023-05-11T04:47:54.590Z,15.93
2023-05-11T04:50:28.254Z,15.91
2023-05-11T04:53:00.897Z,15.89
2023-05-11T04:55:33.794Z,15.96
2023-05-11T04:58:06.525Z,15.91
2023-05-11T05:00:39.730Z,15.93
2023-05-11T05:03:13.755Z,15.90
2023-05-11T05:05:47.030Z,15.98
2023-05-11T05:08:20.378Z,15.98
2023-05-11T05:10:54.278Z,15.93
2023-05-11T05:13:27.130Z,16.01
2023-05-11T05:16:07.681Z,15.95
2023-05-11T05:18:45.029Z,15.95
2023-05-11T05:21:18.089Z,15.95
2023-05-11T05:23:51.157Z,15.94
2023-05-11T05:26:24.043Z,15.99
2023-05-11T05:28:57.991Z,16.02
2023-05-11T05:31:31.195Z,16.00
2023-05-11T05:34:05.489Z,16.08
2023-05-11T05:36:39.228Z,16.07
2023-05-11T05:39:12.654Z,16.06
2023-05-11T05:41:46.403Z,16.06
2023-05-11T05:44:19.352Z,16.05
2023-05-11T05:46:52.113Z,16.05
2023-05-11T05:49:26.272Z,16.09
2023-05-11T05:51:59.118Z,16.14
2023-05-11T05:54:32.934Z,16.16
2023-05-11T05:57:06.872Z,16.19
2023-05-11T05:59:39.722Z,16.22
2023-05-11T06:02:13.646Z,16.24
2023-05-11T06:04:51.178Z,16.30
2023-05-11T06:07:25.616Z,16.29
2023-05-11T06:09:58.713Z,16.36
2023-05-11T06:12:31.542Z,16.39
2023-05-11T06:15:05.359Z,16.39
2023-05-11T06:17:39.393Z,16.42
2023-05-11T06:20:14.914Z,16.48
2023-05-11T06:22:47.859Z,16.56
2023-05-11T06:25:20.892Z,16.59
2023-05-11T06:27:53.795Z,16.65
2023-05-11T06:30:27.002Z,16.66
2023-05-11T06:33:00.544Z,16.71
2023-05-11T06:35:34.690Z,16.73
2023-05-11T06:38:07.430Z,16.83
2023-05-11T06:40:41.893Z,16.85
2023-05-11T06:43:15.120Z,16.88
2023-05-11T06:46:01.053Z,16.97
2023-05-11T06:48:38.498Z,17.04
2023-05-11T06:51:15.099Z,17.09
2023-05-11T06:53:50.068Z,17.15
2023-05-11T06:56:22.842Z,17.22
2023-05-11T06:58:56.034Z,17.26
2023-05-11T07:01:29.125Z,17.34
2023-05-11T07:04:01.960Z,17.32
2023-05-11T07:06:36.307Z,17.42
2023-05-11T07:09:09.041Z,17.45
2023-05-11T07:11:41.971Z,17.49
2023-05-11T07:14:14.766Z,17.62
2023-05-11T07:16:47.926Z,17.63
2023-05-11T07:19:20.738Z,17.71
2023-05-11T07:21:55.344Z,17.67
2023-05-11T07:24:28.270Z,17.76
2023-05-11T07:27:02.019Z,17.80
2023-05-11T07:29:34.922Z,17.85
2023-05-11T07:32:07.739Z,17.88
2023-05-11T07:34:41.169Z,17.89
2023-05-11T07:37:15.343Z,17.94
2023-05-11T07:39:48.162Z,17.93
2023-05-11T07:42:21.033Z,18.01
2023-05-11T07:44:53.849Z,18.07
2023-05-11T07:47:26.995Z,18.13
2023-05-11T07:49:59.767Z,18.24
2023-05-11T07:52:33.869Z,18.34
2023-05-11T07:55:07.954Z,18.43
2023-05-11T07:57:41.040Z,18.51
2023-05-11T08:00:15.717Z,18.61
2023-05-11T08:02:48.793Z,18.71
2023-05-11T08:05:22.208Z,18.84
2023-05-11T08:07:56.438Z,18.91
2023-05-11T08:10:29.173Z,18.92
2023-05-11T08:13:01.907Z,18.94
2023-05-11T08:15:34.879Z,18.93
2023-05-11T08:18:07.879Z,19.24
2023-05-11T08:20:42.179Z,19.30
2023-05-11T08:23:18.191Z,19.54
2023-05-11T08:25:52.903Z,19.73
2023-05-11T08:28:25.629Z,19.80
2023-05-11T08:30:59.153Z,19.97
2023-05-11T08:33:38.115Z,20.16
2023-05-11T08:36:13.306Z,20.17
2023-05-11T08:38:47.428Z,20.21
2023-05-11T08:41:20.506Z,20.28
2023-05-11T08:43:53.925Z,20.34
2023-05-11T08:46:30.782Z,20.33
2023-05-11T08:49:04.054Z,20.30
2023-05-11T08:51:38.366Z,20.42
2023-05-11T08:54:12.853Z,20.47
2023-05-11T08:56:48.570Z,20.47
2023-05-11T08:59:22.090Z,20.54
2023-05-11T09:01:56.965Z,20.49
2023-05-11T09:04:30.511Z,20.50
2023-05-11T09:07:03.551Z,20.45
2023-05-11T09:09:37.667Z,20.50
2023-05-11T09:12:10.848Z,20.55
2023-05-11T09:14:44.035Z,20.57
2023-05-11T09:17:16.793Z,20.54
2023-05-11T09:20:01.061Z,20.54
2023-05-11T09:22:36.174Z,20.66
2023-05-11T09:25:12.532Z,20.67
2023-05-11T09:27:46.552Z,20.65
2023-05-11T09:30:22.886Z,20.75
2023-05-11T09:32:59.605Z,20.84
2023-05-11T09:35:34.198Z,20.96
2023-05-11T09:38:09.245Z,20.96
2023-05-11T09:40:52.082Z,20.91
2023-05-11T09:43:26.959Z,20.94
2023-05-11T09:46:03.983Z,20.89
2023-05-11T09:48:36.725Z,20.79
2023-05-11T09:51:09.565Z,20.75
2023-05-11T09:53:45.786Z,20.73
2023-05-11T09:56:20.086Z,20.67
2023-05-11T09:58:54.497Z,20.67
2023-05-11T10:01:32.388Z,20.67
2023-05-11T10:04:22.022Z,20.63
2023-05-11T10:06:55.387Z,20.69
2023-05-11T10:09:28.538Z,20.73
2023-05-11T10:12:04.029Z,20.69
2023-05-11T10:14:37.246Z,20.70
2023-05-11T10:17:13.242Z,20.78
2023-05-11T10:19:46.363Z,20.78
2023-05-11T10:22:19.799Z,20.77
2023-05-11T10:24:53.035Z,20.78
2023-05-11T10:27:29.138Z,20.83
2023-05-11T10:30:04.205Z,20.85
2023-05-11T10:32:39.055Z,20.87
2023-05-11T10:35:12.250Z,20.87
2023-05-11T10:37:47.594Z,20.82
2023-05-11T10:40:21.037Z,20.85
2023-05-11T10:43:23.770Z,20.75
2023-05-11T10:46:05.674Z,20.69
2023-05-11T10:49:09.969Z,20.62
2023-05-11T10:51:55.103Z,20.56
2023-05-11T10:54:39.279Z,20.60
2023-05-11T10:57:22.885Z,20.49
2023-05-11T11:00:21.390Z,20.49
2023-05-11T11:02:54.633Z,20.49
2023-05-11T11:05:33.801Z,20.53
2023-05-11T11:08:13.371Z,20.50
2023-05-11T11:10:46.617Z,20.58
2023-05-11T11:13:20.090Z,20.56
2023-05-11T11:16:16.208Z,20.66
2023-05-11T11:18:49.513Z,20.66
2023-05-11T11:21:42.216Z,20.68
2023-05-11T11:24:46.664Z,20.69
2023-05-11T11:27:19.576Z,20.73
2023-05-11T11:30:17.420Z,20.81
2023-05-11T11:32:53.348Z,20.83
2023-05-11T11:35:48.810Z,20.80
2023-05-11T11:38:21.808Z,20.82
2023-05-11T11:40:54.836Z,20.94
2023-05-11T11:43:29.848Z,21.02
2023-05-11T11:46:03.837Z,21.06
2023-05-11T11:48:40.661Z,21.19
2023-05-11T11:51:14.449Z,21.23
2023-05-11T11:54:01.992Z,21.30
2023-05-11T11:56:40.367Z,21.28
2023-05-11T11:59:16.247Z,21.33
2023-05-11T12:01:53.139Z,21.25
2023-05-11T12:04:42.145Z,21.30
2023-05-11T12:07:17.026Z,21.46
2023-05-11T12:09:50.352Z,21.46
2023-05-11T12:12:23.158Z,21.47
2023-05-11T12:14:56.057Z,21.58
2023-05-11T12:17:34.523Z,21.62
2023-05-11T12:20:17.245Z,21.76
2023-05-11T12:22:50.877Z,21.74
2023-05-11T12:25:23.979Z,22.00
2023-05-11T12:28:00.460Z,22.09
2023-05-11T12:30:37.124Z,21.95
2023-05-11T12:33:09.960Z,22.06
2023-05-11T12:35:44.843Z,22.11
2023-05-11T12:38:17.689Z,22.14
2023-05-11T12:40:50.870Z,22.04
2023-05-11T12:43:24.154Z,21.94
2023-05-11T12:45:56.994Z,21.87
2023-05-11T12:48:29.859Z,22.03
2023-05-11T12:51:03.982Z,21.95
2023-05-11T12:53:37.457Z,21.85
2023-05-11T12:56:10.345Z,21.93
2023-05-11T12:58:43.116Z,21.90
2023-05-11T13:01:16.419Z,21.73
2023-05-11T13:03:49.350Z,21.59
2023-05-11T13:09:27.808Z,21.69
2023-05-11T13:12:19.353Z,21.72
2023-05-11T13:15:05.245Z,21.69
2023-05-11T13:17:39.603Z,21.61
2023-05-11T13:20:19.321Z,21.72
2023-05-11T13:22:52.580Z,21.58
2023-05-11T13:25:28.759Z,21.56
2023-05-11T13:28:01.630Z,21.66
2023-05-11T13:30:35.429Z,21.64
2023-05-11T13:33:08.431Z,21.64
2023-05-11T13:35:42.591Z,21.66
2023-05-11T13:38:15.736Z,21.48
2023-05-11T13:40:49.748Z,21.61
2023-05-11T13:43:22.698Z,21.65
2023-05-11T13:45:55.961Z,21.62
2023-05-11T13:48:28.850Z,21.85
2023-05-11T13:51:01.667Z,21.93
2023-05-11T13:53:34.165Z,21.99
2023-05-11T13:56:08.413Z,22.17
2023-05-11T13:58:41.241Z,22.22
2023-05-11T14:01:14.106Z,22.32
2023-05-11T14:03:52.433Z,22.38
2023-05-11T14:06:26.601Z,22.56
2023-05-11T14:08:59.433Z,22.60
2023-05-11T14:11:33.556Z,22.80
2023-05-11T14:14:06.469Z,23.01
2023-05-11T14:16:39.551Z,23.03
2023-05-11T14:19:12.297Z,23.03
2023-05-11T14:21:45.227Z,23.04
2023-05-11T14:24:18.016Z,23.16
2023-05-11T14:26:52.497Z,23.13
2023-05-11T14:29:25.181Z,23.07
2023-05-11T14:31:57.925Z,22.99
2023-05-11T14:34:30.636Z,23.06
2023-05-11T14:37:03.384Z,23.10
2023-05-11T14:39:36.169Z,22.96
2023-05-11T14:42:11.047Z,22.94
2023-05-11T14:44:43.787Z,22.97
2023-05-11T14:47:16.659Z,22.95
2023-05-11T14:49:49.440Z,22.97
2023-05-11T14:52:22.110Z,23.04
2023-05-11T14:54:54.931Z,23.20
2023-05-11T14:57:29.347Z,23.21
2023-05-11T15:00:02.175Z,23.35
2023-05-11T15:02:34.996Z,23.36
2023-05-11T15:05:08.154Z,23.38
2023-05-11T15:10:13.555Z,23.57
2023-05-11T15:12:47.662Z,23.51
2023-05-11T15:15:20.700Z,23.51
2023-05-11T15:17:53.776Z,23.47
2023-05-11T15:20:26.529Z,23.52
2023-05-11T15:22:59.364Z,23.49
2023-05-11T15:25:32.684Z,23.47
2023-05-11T15:28:12.493Z,23.49
2023-05-11T15:30:45.614Z,23.54
2023-05-11T15:33:18.279Z,23.40
2023-05-11T15:35:51.347Z,23.37
2023-05-11T15:38:24.320Z,23.34
2023-05-11T15:40:57.222Z,23.35
2023-05-11T15:43:31.337Z,23.42
2023-05-11T15:46:04.888Z,23.40
2023-05-11T15:48:37.818Z,23.47
2023-05-11T15:51:10.576Z,23.40
2023-05-11T15:53:43.353Z,23.26
2023-05-11T15:56:16.056Z,23.27
2023-05-11T15:58:50.737Z,23.33
2023-05-11T16:01:23.643Z,23.32
2023-05-11T16:03:57.176Z,23.33
2023-05-11T16:06:30.493Z,23.29
2023-05-11T16:09:04.647Z,23.23
2023-05-11T16:11:37.684Z,23.17
2023-05-11T16:14:11.890Z,23.13
2023-05-11T16:16:44.783Z,23.08
2023-05-11T16:19:17.614Z,23.07
2023-05-11T16:21:50.370Z,22.99
2023-05-11T16:24:23.219Z,23.00
2023-05-11T16:26:56.089Z,22.95
2023-05-11T16:29:30.156Z,22.98
2023-05-11T16:32:03.150Z,22.95
2023-05-11T16:34:37.592Z,22.93
2023-05-11T16:37:10.680Z,22.91
2023-05-11T16:39:43.895Z,22.88
2023-05-11T16:42:16.873Z,22.76
2023-05-11T16:44:50.857Z,22.69
2023-05-11T16:47:24.744Z,22.70
2023-05-11T16:49:57.559Z,22.70
2023-05-11T16:52:30.146Z,22.70
2023-05-11T16:55:03.791Z,22.64
2023-05-11T16:57:36.543Z,22.56
2023-05-11T17:00:12.138Z,22.55
2023-05-11T17:02:45.096Z,22.49
2023-05-11T17:05:19.001Z,22.48
2023-05-11T17:07:51.771Z,22.38
2023-05-11T17:10:24.936Z,22.37
2023-05-11T17:12:57.896Z,22.36
2023-05-11T17:15:32.282Z,22.39
2023-05-11T17:18:05.316Z,22.37
2023-05-11T17:20:38.232Z,22.24
2023-05-11T17:23:10.792Z,22.19
2023-05-11T17:25:44.310Z,22.22
2023-05-11T17:28:17.325Z,22.14
2023-05-11T17:30:55.600Z,22.18
2023-05-11T17:33:28.533Z,22.06
2023-05-11T17:36:02.289Z,22.03
2023-05-11T17:38:35.128Z,21.93
2023-05-11T17:41:08.168Z,21.93
2023-05-11T17:43:42.144Z,21.95
2023-05-11T17:46:16.285Z,21.80
2023-05-11T17:48:49.090Z,21.79
2023-05-11T17:51:22.072Z,21.77
2023-05-11T17:53:57.393Z,21.67
2023-05-11T17:56:30.158Z,21.60
2023-05-11T17:59:03.359Z,21.69
2023-05-11T18:01:37.598Z,21.57
2023-05-11T18:04:10.480Z,21.46
2023-05-11T18:06:46.284Z,21.50
2023-05-11T18:09:19.587Z,21.39
2023-05-11T18:11:52.351Z,21.36
2023-05-11T18:14:26.618Z,21.27
2023-05-11T18:17:02.163Z,21.28
2023-05-11T18:19:34.936Z,21.21
2023-05-11T18:22:07.776Z,21.23
2023-05-11T18:24:40.456Z,21.22
2023-05-11T18:27:13.312Z,21.09
2023-05-11T18:29:46.196Z,21.08
2023-05-11T18:32:20.533Z,21.00
2023-05-11T18:34:54.535Z,20.99
2023-05-11T18:37:28.218Z,20.93
2023-05-11T18:40:02.760Z,20.88
2023-05-11T18:42:35.801Z,20.81
2023-05-11T18:45:09.102Z,20.75
2023-05-11T18:47:44.469Z,20.69
2023-05-11T18:50:17.511Z,20.72
2023-05-11T18:52:50.557Z,20.60
2023-05-11T18:55:23.965Z,20.56
2023-05-11T18:57:57.902Z,20.54
2023-05-11T19:00:37.168Z,20.53
2023-05-11T19:03:11.720Z,20.39
2023-05-11T19:05:45.087Z,20.35
2023-05-11T19:08:18.623Z,20.33
2023-05-11T19:10:51.686Z,20.26
2023-05-11T19:13:25.326Z,20.26
2023-05-11T19:15:58.097Z,20.09
2023-05-11T19:18:35.533Z,20.01
2023-05-11T19:21:08.514Z,19.94
2023-05-11T19:23:41.198Z,19.93
2023-05-11T19:26:14.016Z,19.88
2023-05-11T19:28:46.717Z,19.85
2023-05-11T19:31:19.538Z,19.81
2023-05-11T19:33:53.662Z,19.70
2023-05-11T19:36:28.690Z,19.62
2023-05-11T19:39:01.665Z,19.57
2023-05-11T19:41:37.536Z,19.58
2023-05-11T19:44:10.481Z,19.68
2023-05-11T19:46:46.513Z,19.47
2023-05-11T19:49:21.085Z,19.51
2023-05-11T19:51:56.130Z,19.46
2023-05-11T19:54:28.960Z,19.44
2023-05-11T19:57:01.631Z,19.38
2023-05-11T19:59:34.896Z,19.37
2023-05-11T20:02:08.228Z,19.38
2023-05-11T20:04:46.534Z,19.27
2023-05-11T20:07:20.232Z,19.34
2023-05-11T20:09:53.506Z,19.30
2023-05-11T20:12:26.480Z,19.25
2023-05-11T20:14:59.277Z,19.22
2023-05-11T20:17:32.145Z,19.21
2023-05-11T20:20:08.145Z,19.20
2023-05-11T20:22:41.126Z,18.99
2023-05-11T20:25:18.432Z,18.98
2023-05-11T20:27:53.267Z,18.98
2023-05-11T20:30:26.268Z,19.05
2023-05-11T20:35:36.094Z,18.86
2023-05-11T20:38:08.828Z,18.82
2023-05-11T20:40:41.627Z,18.85
2023-05-11T20:43:14.914Z,18.81
2023-05-11T20:45:48.983Z,18.86
2023-05-11T20:48:32.460Z,18.85
2023-05-11T20:51:13.687Z,18.77
2023-05-11T20:53:46.509Z,18.85
2023-05-11T20:56:19.243Z,18.74
2023-05-11T20:58:51.964Z,18.73
2023-05-11T21:01:24.950Z,18.84
2023-05-11T21:03:58.660Z,18.77
2023-05-11T21:06:33.700Z,18.72
2023-05-11T21:09:06.765Z,18.69
2023-05-11T21:11:39.458Z,18.67
2023-05-11T21:14:12.179Z,18.60
2023-05-11T21:16:45.093Z,18.59
2023-05-11T21:19:18.480Z,18.63
2023-05-11T21:21:52.586Z,18.58
2023-05-11T21:24:25.441Z,18.55
2023-05-11T21:26:58.217Z,18.49
2023-05-11T21:29:31.038Z,18.53
2023-05-11T21:32:04.340Z,18.58
2023-05-11T21:34:37.139Z,18.57
2023-05-11T21:37:14.500Z,18.47
2023-05-11T21:39:48.096Z,18.49
2023-05-11T21:42:20.771Z,18.47
2023-05-11T21:44:53.497Z,18.49
2023-05-11T21:47:26.464Z,18.43
2023-05-11T21:49:59.788Z,18.47
2023-05-11T21:52:33.961Z,18.46
2023-05-11T21:55:08.020Z,18.41
2023-05-11T21:57:40.740Z,18.34
2023-05-11T22:00:18.323Z,18.35
2023-05-11T22:02:51.923Z,18.33
2023-05-11T22:05:24.682Z,18.28
2023-05-11T22:08:10.544Z,18.35
2023-05-11T22:10:47.431Z,18.34
2023-05-11T22:13:20.598Z,18.27
2023-05-11T22:15:53.571Z,18.30
2023-05-11T22:18:26.306Z,18.29
2023-05-11T22:20:59.081Z,18.22
2023-05-11T22:23:33.208Z,18.25
2023-05-11T22:26:06.022Z,18.16
2023-05-11T22:28:38.917Z,18.17
2023-05-11T22:31:11.563Z,18.18
2023-05-11T22:33:44.355Z,18.16
2023-05-11T22:36:17.019Z,18.19
2023-05-11T22:38:51.406Z,18.17
2023-05-11T22:41:24.169Z,18.19
2023-05-11T22:43:56.940Z,18.10
2023-05-11T22:46:29.730Z,18.13
2023-05-11T22:49:02.765Z,18.05
2023-05-11T22:51:35.378Z,18.05
2023-05-11T22:54:09.764Z,18.06
2023-05-11T22:56:42.988Z,18.00
2023-05-11T22:59:15.776Z,18.04
2023-05-11T23:01:48.630Z,17.96
2023-05-11T23:04:21.510Z,17.97
2023-05-11T23:06:54.070Z,17.99
2023-05-11T23:09:28.357Z,17.97
2023-05-11T23:12:01.274Z,18.00
2023-05-11T23:14:34.099Z,17.87
2023-05-11T23:17:06.894Z,17.85
2023-05-11T23:19:39.703Z,17.83
2023-05-11T23:22:12.469Z,17.78
2023-05-11T23:24:46.588Z,17.78
2023-05-11T23:27:19.268Z,17.79
2023-05-11T23:29:52.018Z,17.78
2023-05-11T23:32:24.811Z,17.87
2023-05-11T23:34:57.512Z,17.82
2023-05-11T23:37:30.234Z,17.82
2023-05-11T23:40:05.676Z,17.80
2023-05-11T23:42:39.073Z,17.76
2023-05-11T23:45:13.401Z,17.72
2023-05-11T23:47:46.184Z,17.63
2023-05-11T23:50:19.571Z,17.66
2023-05-11T23:52:52.568Z,17.65
2023-05-11T23:55:26.549Z,17.65
2023-05-11T23:57:59.258Z,17.72
